Airfield :







YOU CAN JOIN US ON...

 
LOGIN :

Register | Disclaimer

   EN    FR    IT 

 









Legend :    VFR   Marginal VFR   IFR   Intensive IFR   Very Intensive IFR
Visi :
Ceiling :
>= 8 km
>= 3000ft
5 to 8 km
1000 to 3000 ft
1500m to 5 km
500 to 1000 ft
800 to 1500m
200 to 500 ft
< 800m
< 200 ft
Symbols :   Thunderstorms  Fog  Heavy snow  Heavy precipitations  Wind > 20 kt






- Airport Elevation : 107 ft


KBVY - Beverly Municipal

CURRENT METAR :
  • 102053Z 22008KT 10SM -RA OVC100 13/11 A2971 RMK AO2 SLP055 P0001 60003 T01330106 50009

EXPIRED METARs :
  • 101953Z 22010KT 10SM -RA FEW045 OVC100 14/11 A2972 RMK AO2 SLP058 P0002 T01390106
  • 101853Z 23014G18KT 10SM -RA FEW022 BKN085 OVC110 15/11 A2969 RMK AO2 RAB53 SLP050 P0000 T01500106

TAF N/A



MET'MAP, your aeronautical weather chart ! - Copyright ORBIFLY December 2007 - Disclaimer

ORBIFLY MET'MAP TEAM :

Programming & Development : Alexandra Zaïnal
Concept & original design : Baudouin d'Aumeries
Assistance for programming : Marc-Olivier Méhu
Technical & hardware support : Manuel Goepfert

Contact : metmap@orbifly.com




SOURCES & CREDITS :

   NOAA